sensor_id;sensor_type;location;lat;lon;timestamp;temperature;humidity
21123;DHT22;10719;48.130;11.630;2024-01-16T00:02:01;-2.10;99.90
21123;DHT22;10719;48.130;11.630;2024-01-16T00:04:26;-2.10;99.90
21123;DHT22;10719;48.130;11.630;2024-01-16T00:06:55;-2.20;99.90
21123;DHT22;10719;48.130;11.630;2024-01-16T00:09:21;-2.10;99.90
21123;DHT22;10719;48.130;11.630;2024-01-16T00:11:46;-2.10;99.90
21123;DHT22;10719;48.130;11.630;2024-01-16T00:14:12;-2.20;99.90
21123;DHT22;10719;48.130;11.630;2024-01-16T00:16:45;-2.20;99.90
21123;DHT22;10719;48.130;11.630;2024-01-16T00:19:11;-2.20;99.90
21123;DHT22;10719;48.130;11.630;2024-01-16T00:21:41;-2.30;99.90
21123;DHT22;10719;48.130;11.630;2024-01-16T00:24:07;-2.40;99.90
21123;DHT22;10719;48.130;11.630;2024-01-16T00:26:33;-2.40;99.90
21123;DHT22;10719;48.130;11.630;2024-01-16T00:28:59;-2.40;99.90
21123;DHT22;10719;48.130;11.630;2024-01-16T00:31:25;-2.40;99.90
21123;DHT22;10719;48.130;11.630;2024-01-16T00:33:51;-2.50;99.90
21123;DHT22;10719;48.130;11.630;2024-01-16T00:36:17;-2.40;99.90
21123;DHT22;10719;48.130;11.630;2024-01-16T00:38:42;-2.50;99.90
21123;DHT22;10719;48.130;11.630;2024-01-16T00:41:08;-2.40;99.90
21123;DHT22;10719;48.130;11.630;2024-01-16T00:43:34;-2.40;99.90
21123;DHT22;10719;48.130;11.630;2024-01-16T00:46:01;-2.50;99.90
21123;DHT22;10719;48.130;11.630;2024-01-16T00:48:26;-2.50;99.90
21123;DHT22;10719;48.130;11.630;2024-01-16T00:50:52;-2.50;99.90
21123;DHT22;10719;48.130;11.630;2024-01-16T00:53:18;-2.50;99.90
21123;DHT22;10719;48.130;11.630;2024-01-16T00:55:43;-2.50;99.90
21123;DHT22;10719;48.130;11.630;2024-01-16T00:58:09;-2.50;99.90
21123;DHT22;10719;48.130;11.630;2024-01-16T01:00:34;-2.40;99.90
21123;DHT22;10719;48.130;11.630;2024-01-16T01:03:03;-2.40;99.90
21123;DHT22;10719;48.130;11.630;2024-01-16T01:05:29;-2.40;99.90
21123;DHT22;10719;48.130;11.630;2024-01-16T01:07:55;-2.50;99.90
21123;DHT22;10719;48.130;11.630;2024-01-16T01:10:21;-2.50;99.90
21123;DHT22;10719;48.130;11.630;2024-01-16T01:12:47;-2.50;99.90
21123;DHT22;10719;48.130;11.630;2024-01-16T01:15:12;-2.50;99.90
21123;DHT22;10719;48.130;11.630;2024-01-16T01:17:39;-2.50;99.90
21123;DHT22;10719;48.130;11.630;2024-01-16T01:20:06;-2.60;99.90
21123;DHT22;10719;48.130;11.630;2024-01-16T01:22:32;-2.60;99.90
21123;DHT22;10719;48.130;11.630;2024-01-16T01:24:57;-2.60;99.90
21123;DHT22;10719;48.130;11.630;2024-01-16T01:27:23;-2.60;99.90
21123;DHT22;10719;48.130;11.630;2024-01-16T01:29:49;-2.70;99.90
21123;DHT22;10719;48.130;11.630;2024-01-16T01:32:14;-2.70;99.90
21123;DHT22;10719;48.130;11.630;2024-01-16T01:34:43;-2.70;99.90
21123;DHT22;10719;48.130;11.630;2024-01-16T01:37:09;-2.70;99.90
21123;DHT22;10719;48.130;11.630;2024-01-16T01:39:34;-2.70;99.90
21123;DHT22;10719;48.130;11.630;2024-01-16T01:42:00;-2.70;99.90
21123;DHT22;10719;48.130;11.630;2024-01-16T01:44:26;-2.70;99.90
21123;DHT22;10719;48.130;11.630;2024-01-16T01:46:54;-2.70;99.90
21123;DHT22;10719;48.130;11.630;2024-01-16T01:49:22;-2.70;99.90
21123;DHT22;10719;48.130;11.630;2024-01-16T01:51:48;-2.60;99.90
21123;DHT22;10719;48.130;11.630;2024-01-16T01:54:15;-2.60;99.90
21123;DHT22;10719;48.130;11.630;2024-01-16T01:56:46;-2.50;99.90
21123;DHT22;10719;48.130;11.630;2024-01-16T01:59:14;-2.50;99.90
21123;DHT22;10719;48.130;11.630;2024-01-16T02:01:41;-2.50;99.90
21123;DHT22;10719;48.130;11.630;2024-01-16T02:04:08;-2.50;99.90
21123;DHT22;10719;48.130;11.630;2024-01-16T02:06:34;-2.50;99.90
21123;DHT22;10719;48.130;11.630;2024-01-16T02:09:00;-2.50;99.90
21123;DHT22;10719;48.130;11.630;2024-01-16T02:11:26;-2.50;99.90
21123;DHT22;10719;48.130;11.630;2024-01-16T02:13:52;-2.50;99.90
21123;DHT22;10719;48.130;11.630;2024-01-16T02:16:22;-2.40;99.90
21123;DHT22;10719;48.130;11.630;2024-01-16T02:18:48;-2.50;99.90
21123;DHT22;10719;48.130;11.630;2024-01-16T02:21:20;-2.50;99.90
21123;DHT22;10719;48.130;11.630;2024-01-16T02:23:46;-2.50;99.90
21123;DHT22;10719;48.130;11.630;2024-01-16T02:26:14;-2.50;99.90
21123;DHT22;10719;48.130;11.630;2024-01-16T02:28:41;-2.50;99.90
21123;DHT22;10719;48.130;11.630;2024-01-16T02:31:07;-2.50;99.90
21123;DHT22;10719;48.130;11.630;2024-01-16T02:33:33;-2.40;99.90
21123;DHT22;10719;48.130;11.630;2024-01-16T02:35:59;-2.50;99.90
21123;DHT22;10719;48.130;11.630;2024-01-16T02:38:25;-2.50;99.90
21123;DHT22;10719;48.130;11.630;2024-01-16T02:40:50;-2.60;99.90
21123;DHT22;10719;48.130;11.630;2024-01-16T02:43:16;-2.60;99.90
21123;DHT22;10719;48.130;11.630;2024-01-16T02:45:42;-2.70;99.90
21123;DHT22;10719;48.130;11.630;2024-01-16T02:48:08;-2.70;99.90
21123;DHT22;10719;48.130;11.630;2024-01-16T02:50:34;-2.80;99.90
21123;DHT22;10719;48.130;11.630;2024-01-16T02:52:59;-2.80;99.90
21123;DHT22;10719;48.130;11.630;2024-01-16T02:55:25;-2.90;99.90
21123;DHT22;10719;48.130;11.630;2024-01-16T02:57:51;-2.90;99.90
21123;DHT22;10719;48.130;11.630;2024-01-16T03:00:16;-2.90;99.90
21123;DHT22;10719;48.130;11.630;2024-01-16T03:02:43;-2.90;99.90
21123;DHT22;10719;48.130;11.630;2024-01-16T03:05:09;-3.00;99.90
21123;DHT22;10719;48.130;11.630;2024-01-16T03:07:36;-3.00;99.90
21123;DHT22;10719;48.130;11.630;2024-01-16T03:10:02;-3.00;99.90
21123;DHT22;10719;48.130;11.630;2024-01-16T03:12:28;-3.00;99.90
21123;DHT22;10719;48.130;11.630;2024-01-16T03:14:54;-3.00;99.90
21123;DHT22;10719;48.130;11.630;2024-01-16T03:17:20;-3.10;99.90
21123;DHT22;10719;48.130;11.630;2024-01-16T03:19:45;-3.10;99.90
21123;DHT22;10719;48.130;11.630;2024-01-16T03:22:11;-3.20;99.90
21123;DHT22;10719;48.130;11.630;2024-01-16T03:24:37;-3.20;99.90
21123;DHT22;10719;48.130;11.630;2024-01-16T03:27:03;-3.20;99.90
21123;DHT22;10719;48.130;11.630;2024-01-16T03:29:29;-3.30;99.90
21123;DHT22;10719;48.130;11.630;2024-01-16T03:31:55;-3.20;99.90
21123;DHT22;10719;48.130;11.630;2024-01-16T03:34:21;-3.30;99.90
21123;DHT22;10719;48.130;11.630;2024-01-16T03:36:46;-3.30;99.90
21123;DHT22;10719;48.130;11.630;2024-01-16T03:39:12;-3.30;99.90
21123;DHT22;10719;48.130;11.630;2024-01-16T03:41:39;-3.30;99.90
21123;DHT22;10719;48.130;11.630;2024-01-16T03:44:05;-3.30;99.90
21123;DHT22;10719;48.130;11.630;2024-01-16T03:46:30;-3.30;99.90
21123;DHT22;10719;48.130;11.630;2024-01-16T03:48:56;-3.40;99.90
21123;DHT22;10719;48.130;11.630;2024-01-16T03:51:22;-3.40;99.90
21123;DHT22;10719;48.130;11.630;2024-01-16T03:53:47;-3.30;99.90
21123;DHT22;10719;48.130;11.630;2024-01-16T03:56:14;-3.30;99.90
21123;DHT22;10719;48.130;11.630;2024-01-16T03:58:40;-3.30;99.90
21123;DHT22;10719;48.130;11.630;2024-01-16T04:01:07;-3.30;99.90
21123;DHT22;10719;48.130;11.630;2024-01-16T04:03:32;-3.30;99.90
21123;DHT22;10719;48.130;11.630;2024-01-16T04:05:59;-3.30;99.90
21123;DHT22;10719;48.130;11.630;2024-01-16T04:08:24;-3.20;99.90
21123;DHT22;10719;48.130;11.630;2024-01-16T04:10:50;-3.10;99.90
21123;DHT22;10719;48.130;11.630;2024-01-16T04:13:16;-3.10;99.90
21123;DHT22;10719;48.130;11.630;2024-01-16T04:15:41;-3.00;99.90
21123;DHT22;10719;48.130;11.630;2024-01-16T04:18:07;-3.00;99.90
21123;DHT22;10719;48.130;11.630;2024-01-16T04:20:33;-3.00;99.90
21123;DHT22;10719;48.130;11.630;2024-01-16T04:22:58;-2.90;99.90
21123;DHT22;10719;48.130;11.630;2024-01-16T04:25:24;-2.80;99.90
21123;DHT22;10719;48.130;11.630;2024-01-16T04:27:50;-2.80;99.90
21123;DHT22;10719;48.130;11.630;2024-01-16T04:30:16;-2.80;99.90
21123;DHT22;10719;48.130;11.630;2024-01-16T04:32:41;-2.80;99.90
21123;DHT22;10719;48.130;11.630;2024-01-16T04:35:07;-2.80;99.90
21123;DHT22;10719;48.130;11.630;2024-01-16T04:37:34;-2.70;99.90
21123;DHT22;10719;48.130;11.630;2024-01-16T04:39:59;-2.70;99.90
21123;DHT22;10719;48.130;11.630;2024-01-16T04:42:25;-2.60;99.90
21123;DHT22;10719;48.130;11.630;2024-01-16T04:44:51;-2.70;99.90
21123;DHT22;10719;48.130;11.630;2024-01-16T04:47:16;-2.70;99.90
21123;DHT22;10719;48.130;11.630;2024-01-16T04:49:42;-2.70;99.90
21123;DHT22;10719;48.130;11.630;2024-01-16T04:52:08;-2.70;99.90
21123;DHT22;10719;48.130;11.630;2024-01-16T04:54:34;-2.70;99.90
21123;DHT22;10719;48.130;11.630;2024-01-16T04:57:00;-2.80;99.90
21123;DHT22;10719;48.130;11.630;2024-01-16T04:59:25;-2.80;99.90
21123;DHT22;10719;48.130;11.630;2024-01-16T05:01:51;-2.80;99.90
21123;DHT22;10719;48.130;11.630;2024-01-16T05:04:17;-2.80;99.90
21123;DHT22;10719;48.130;11.630;2024-01-16T05:06:43;-2.80;99.90
21123;DHT22;10719;48.130;11.630;2024-01-16T05:09:09;-2.80;99.90
21123;DHT22;10719;48.130;11.630;2024-01-16T05:11:35;-2.90;99.90
21123;DHT22;10719;48.130;11.630;2024-01-16T05:14:01;-2.90;99.90
21123;DHT22;10719;48.130;11.630;2024-01-16T05:16:27;-2.90;99.90
21123;DHT22;10719;48.130;11.630;2024-01-16T05:18:53;-2.90;99.90
21123;DHT22;10719;48.130;11.630;2024-01-16T05:21:20;-2.90;99.90
21123;DHT22;10719;48.130;11.630;2024-01-16T05:23:46;-2.80;99.90
21123;DHT22;10719;48.130;11.630;2024-01-16T05:26:12;-2.90;99.90
21123;DHT22;10719;48.130;11.630;2024-01-16T05:28:39;-2.90;99.90
21123;DHT22;10719;48.130;11.630;2024-01-16T05:31:04;-3.00;99.90
21123;DHT22;10719;48.130;11.630;2024-01-16T05:33:30;-3.10;99.90
21123;DHT22;10719;48.130;11.630;2024-01-16T05:35:57;-3.10;99.90
21123;DHT22;10719;48.130;11.630;2024-01-16T05:38:23;-3.20;99.90
21123;DHT22;10719;48.130;11.630;2024-01-16T05:40:49;-3.20;99.90
21123;DHT22;10719;48.130;11.630;2024-01-16T05:43:14;-3.20;99.90
21123;DHT22;10719;48.130;11.630;2024-01-16T05:45:40;-3.20;99.90
21123;DHT22;10719;48.130;11.630;2024-01-16T05:48:06;-3.20;99.90
21123;DHT22;10719;48.130;11.630;2024-01-16T05:50:36;-3.20;99.90
21123;DHT22;10719;48.130;11.630;2024-01-16T05:53:02;-3.20;99.90
21123;DHT22;10719;48.130;11.630;2024-01-16T05:55:28;-3.20;99.90
21123;DHT22;10719;48.130;11.630;2024-01-16T05:57:57;-3.20;99.90
21123;DHT22;10719;48.130;11.630;2024-01-16T06:00:24;-3.20;99.90
21123;DHT22;10719;48.130;11.630;2024-01-16T06:02:50;-3.30;99.90
21123;DHT22;10719;48.130;11.630;2024-01-16T06:05:16;-3.40;99.90
21123;DHT22;10719;48.130;11.630;2024-01-16T06:07:42;-3.30;99.90
21123;DHT22;10719;48.130;11.630;2024-01-16T06:10:08;-3.30;99.90
21123;DHT22;10719;48.130;11.630;2024-01-16T06:12:34;-3.30;99.90
21123;DHT22;10719;48.130;11.630;2024-01-16T06:15:00;-3.30;99.90
21123;DHT22;10719;48.130;11.630;2024-01-16T06:17:26;-3.30;99.90
21123;DHT22;10719;48.130;11.630;2024-01-16T06:19:51;-3.30;99.90
21123;DHT22;10719;48.130;11.630;2024-01-16T06:22:17;-3.30;99.90
21123;DHT22;10719;48.130;11.630;2024-01-16T06:24:42;-3.20;99.90
21123;DHT22;10719;48.130;11.630;2024-01-16T06:27:08;-3.30;99.90
21123;DHT22;10719;48.130;11.630;2024-01-16T06:29:33;-3.20;99.90
21123;DHT22;10719;48.130;11.630;2024-01-16T06:31:59;-3.20;99.90
21123;DHT22;10719;48.130;11.630;2024-01-16T06:34:25;-3.30;99.90
21123;DHT22;10719;48.130;11.630;2024-01-16T06:36:50;-3.30;99.90
21123;DHT22;10719;48.130;11.630;2024-01-16T06:39:16;-3.30;99.90
21123;DHT22;10719;48.130;11.630;2024-01-16T06:41:42;-3.30;99.90
21123;DHT22;10719;48.130;11.630;2024-01-16T06:44:10;-3.30;99.90
21123;DHT22;10719;48.130;11.630;2024-01-16T06:46:39;-3.30;99.90
21123;DHT22;10719;48.130;11.630;2024-01-16T06:49:05;-3.30;99.90
21123;DHT22;10719;48.130;11.630;2024-01-16T06:51:31;-3.30;99.90
21123;DHT22;10719;48.130;11.630;2024-01-16T06:53:56;-3.30;99.90
21123;DHT22;10719;48.130;11.630;2024-01-16T06:56:22;-3.30;99.90
21123;DHT22;10719;48.130;11.630;2024-01-16T06:58:49;-3.20;99.90
21123;DHT22;10719;48.130;11.630;2024-01-16T07:01:15;-3.30;99.90
21123;DHT22;10719;48.130;11.630;2024-01-16T07:03:40;-3.30;99.90
21123;DHT22;10719;48.130;11.630;2024-01-16T07:06:06;-3.40;99.90
21123;DHT22;10719;48.130;11.630;2024-01-16T07:08:32;-3.60;99.90
21123;DHT22;10719;48.130;11.630;2024-01-16T07:10:58;-3.70;99.90
21123;DHT22;10719;48.130;11.630;2024-01-16T07:13:23;-3.90;99.90
21123;DHT22;10719;48.130;11.630;2024-01-16T07:15:49;-4.00;99.90
21123;DHT22;10719;48.130;11.630;2024-01-16T07:18:15;-4.10;99.90
21123;DHT22;10719;48.130;11.630;2024-01-16T07:20:40;-4.10;99.90
21123;DHT22;10719;48.130;11.630;2024-01-16T07:23:06;-4.10;99.90
21123;DHT22;10719;48.130;11.630;2024-01-16T07:25:32;-4.10;99.90
21123;DHT22;10719;48.130;11.630;2024-01-16T07:27:57;-4.30;99.90
21123;DHT22;10719;48.130;11.630;2024-01-16T07:30:23;-4.30;99.90
21123;DHT22;10719;48.130;11.630;2024-01-16T07:32:49;-4.20;99.90
21123;DHT22;10719;48.130;11.630;2024-01-16T07:35:16;-4.20;99.90
21123;DHT22;10719;48.130;11.630;2024-01-16T07:37:42;-4.20;99.90
21123;DHT22;10719;48.130;11.630;2024-01-16T07:40:08;-4.20;99.90
21123;DHT22;10719;48.130;11.630;2024-01-16T07:42:35;-4.20;99.90
21123;DHT22;10719;48.130;11.630;2024-01-16T07:45:02;-4.30;99.90
21123;DHT22;10719;48.130;11.630;2024-01-16T07:47:31;-4.30;99.90
21123;DHT22;10719;48.130;11.630;2024-01-16T07:49:57;-4.20;99.90
21123;DHT22;10719;48.130;11.630;2024-01-16T07:52:23;-4.10;99.90
21123;DHT22;10719;48.130;11.630;2024-01-16T07:54:49;-4.10;99.90
21123;DHT22;10719;48.130;11.630;2024-01-16T07:57:14;-4.20;99.90
21123;DHT22;10719;48.130;11.630;2024-01-16T07:59:40;-4.30;99.90
21123;DHT22;10719;48.130;11.630;2024-01-16T08:02:06;-4.30;99.90
21123;DHT22;10719;48.130;11.630;2024-01-16T08:04:32;-4.30;99.90
21123;DHT22;10719;48.130;11.630;2024-01-16T08:06:57;-4.00;99.90
21123;DHT22;10719;48.130;11.630;2024-01-16T08:09:23;-3.80;99.90
21123;DHT22;10719;48.130;11.630;2024-01-16T08:11:49;-3.80;99.90
21123;DHT22;10719;48.130;11.630;2024-01-16T08:14:15;-3.80;99.90
21123;DHT22;10719;48.130;11.630;2024-01-16T08:16:40;-3.70;99.90
21123;DHT22;10719;48.130;11.630;2024-01-16T08:19:06;-3.60;99.90
21123;DHT22;10719;48.130;11.630;2024-01-16T08:21:32;-3.60;99.90
21123;DHT22;10719;48.130;11.630;2024-01-16T08:23:57;-3.50;99.90
21123;DHT22;10719;48.130;11.630;2024-01-16T08:26:23;-3.50;99.90
21123;DHT22;10719;48.130;11.630;2024-01-16T08:28:49;-3.20;99.90
21123;DHT22;10719;48.130;11.630;2024-01-16T08:31:19;-3.30;99.90
21123;DHT22;10719;48.130;11.630;2024-01-16T08:33:45;-3.30;99.90
21123;DHT22;10719;48.130;11.630;2024-01-16T08:36:11;-3.30;99.90
21123;DHT22;10719;48.130;11.630;2024-01-16T08:38:36;-3.10;99.90
21123;DHT22;10719;48.130;11.630;2024-01-16T08:41:02;-3.20;99.90
21123;DHT22;10719;48.130;11.630;2024-01-16T08:43:34;-3.20;99.90
21123;DHT22;10719;48.130;11.630;2024-01-16T08:45:59;-3.10;99.90
21123;DHT22;10719;48.130;11.630;2024-01-16T08:48:25;-3.00;99.90
21123;DHT22;10719;48.130;11.630;2024-01-16T08:50:51;-2.80;99.90
21123;DHT22;10719;48.130;11.630;2024-01-16T08:53:17;-2.80;99.90
21123;DHT22;10719;48.130;11.630;2024-01-16T08:55:43;-2.80;99.90
21123;DHT22;10719;48.130;11.630;2024-01-16T08:58:08;-2.70;99.90
21123;DHT22;10719;48.130;11.630;2024-01-16T09:00:34;-2.70;99.90
21123;DHT22;10719;48.130;11.630;2024-01-16T09:02:59;-2.60;99.90
21123;DHT22;10719;48.130;11.630;2024-01-16T09:05:25;-2.40;99.90
21123;DHT22;10719;48.130;11.630;2024-01-16T09:07:51;-2.50;99.90
21123;DHT22;10719;48.130;11.630;2024-01-16T09:10:18;-2.50;99.90
21123;DHT22;10719;48.130;11.630;2024-01-16T09:12:44;-2.40;99.90
21123;DHT22;10719;48.130;11.630;2024-01-16T09:15:10;-2.30;99.90
21123;DHT22;10719;48.130;11.630;2024-01-16T09:17:35;-2.00;99.90
21123;DHT22;10719;48.130;11.630;2024-01-16T09:20:01;-2.00;99.90
21123;DHT22;10719;48.130;11.630;2024-01-16T09:22:27;-2.10;99.90
21123;DHT22;10719;48.130;11.630;2024-01-16T09:24:52;-1.90;99.90
21123;DHT22;10719;48.130;11.630;2024-01-16T09:27:18;-1.80;99.90
21123;DHT22;10719;48.130;11.630;2024-01-16T09:29:45;-1.70;99.90
21123;DHT22;10719;48.130;11.630;2024-01-16T09:32:10;-1.60;99.90
21123;DHT22;10719;48.130;11.630;2024-01-16T09:34:36;-1.40;99.90
21123;DHT22;10719;48.130;11.630;2024-01-16T09:37:02;-1.30;99.90
21123;DHT22;10719;48.130;11.630;2024-01-16T09:39:28;-1.20;99.90
21123;DHT22;10719;48.130;11.630;2024-01-16T09:41:59;-1.10;99.90
21123;DHT22;10719;48.130;11.630;2024-01-16T09:44:25;-1.10;99.90
21123;DHT22;10719;48.130;11.630;2024-01-16T09:46:53;-1.00;99.90
21123;DHT22;10719;48.130;11.630;2024-01-16T09:49:20;-0.90;99.90
21123;DHT22;10719;48.130;11.630;2024-01-16T09:51:46;-0.90;99.90
21123;DHT22;10719;48.130;11.630;2024-01-16T09:54:12;-0.80;99.90
21123;DHT22;10719;48.130;11.630;2024-01-16T09:56:49;-0.70;99.90
21123;DHT22;10719;48.130;11.630;2024-01-16T09:59:17;-0.60;99.90
21123;DHT22;10719;48.130;11.630;2024-01-16T10:01:48;-0.50;99.90
21123;DHT22;10719;48.130;11.630;2024-01-16T10:04:15;-0.50;99.90
21123;DHT22;10719;48.130;11.630;2024-01-16T10:06:41;-0.60;99.90
21123;DHT22;10719;48.130;11.630;2024-01-16T10:09:10;-0.60;99.90
21123;DHT22;10719;48.130;11.630;2024-01-16T10:11:38;-0.40;99.90
21123;DHT22;10719;48.130;11.630;2024-01-16T10:14:03;-0.50;99.90
21123;DHT22;10719;48.130;11.630;2024-01-16T10:16:55;-0.30;99.90
21123;DHT22;10719;48.130;11.630;2024-01-16T10:19:22;-0.10;99.90
21123;DHT22;10719;48.130;11.630;2024-01-16T10:21:48;0.10;99.90
21123;DHT22;10719;48.130;11.630;2024-01-16T10:24:13;0.20;99.90
21123;DHT22;10719;48.130;11.630;2024-01-16T10:26:39;0.30;99.90
21123;DHT22;10719;48.130;11.630;2024-01-16T10:29:05;0.30;99.90
21123;DHT22;10719;48.130;11.630;2024-01-16T10:31:30;0.50;99.90
21123;DHT22;10719;48.130;11.630;2024-01-16T10:33:56;0.60;99.90
21123;DHT22;10719;48.130;11.630;2024-01-16T10:36:23;0.60;99.90
21123;DHT22;10719;48.130;11.630;2024-01-16T10:38:51;0.60;99.90
21123;DHT22;10719;48.130;11.630;2024-01-16T10:41:23;0.50;99.90
21123;DHT22;10719;48.130;11.630;2024-01-16T10:44:18;0.70;99.90
21123;DHT22;10719;48.130;11.630;2024-01-16T10:46:43;0.90;99.90
21123;DHT22;10719;48.130;11.630;2024-01-16T10:49:09;1.00;99.90
21123;DHT22;10719;48.130;11.630;2024-01-16T10:51:35;1.00;99.90
21123;DHT22;10719;48.130;11.630;2024-01-16T10:54:02;1.00;99.90
21123;DHT22;10719;48.130;11.630;2024-01-16T10:56:31;1.00;99.90
21123;DHT22;10719;48.130;11.630;2024-01-16T11:01:37;1.00;99.90
21123;DHT22;10719;48.130;11.630;2024-01-16T11:04:03;0.90;99.90
21123;DHT22;10719;48.130;11.630;2024-01-16T11:06:30;1.00;99.90
21123;DHT22;10719;48.130;11.630;2024-01-16T11:08:57;1.20;99.90
21123;DHT22;10719;48.130;11.630;2024-01-16T11:11:24;1.30;99.90
21123;DHT22;10719;48.130;11.630;2024-01-16T11:13:51;1.20;99.90
21123;DHT22;10719;48.130;11.630;2024-01-16T11:16:17;1.10;99.90
21123;DHT22;10719;48.130;11.630;2024-01-16T11:18:43;1.00;99.90
21123;DHT22;10719;48.130;11.630;2024-01-16T11:21:12;0.70;99.90
21123;DHT22;10719;48.130;11.630;2024-01-16T11:23:39;1.00;99.90
21123;DHT22;10719;48.130;11.630;2024-01-16T11:26:25;1.30;99.90
21123;DHT22;10719;48.130;11.630;2024-01-16T11:28:54;1.50;99.90
21123;DHT22;10719;48.130;11.630;2024-01-16T11:31:28;1.60;99.90
21123;DHT22;10719;48.130;11.630;2024-01-16T11:33:53;1.80;99.90
21123;DHT22;10719;48.130;11.630;2024-01-16T11:39:20;1.20;99.90
21123;DHT22;10719;48.130;11.630;2024-01-16T11:41:52;1.20;99.90
21123;DHT22;10719;48.130;11.630;2024-01-16T11:47:06;0.90;99.90
21123;DHT22;10719;48.130;11.630;2024-01-16T11:49:32;1.20;99.90
21123;DHT22;10719;48.130;11.630;2024-01-16T11:51:59;1.20;99.90
21123;DHT22;10719;48.130;11.630;2024-01-16T11:54:24;1.30;99.90
21123;DHT22;10719;48.130;11.630;2024-01-16T12:02:23;1.60;99.90
21123;DHT22;10719;48.130;11.630;2024-01-16T12:04:55;1.70;99.90
21123;DHT22;10719;48.130;11.630;2024-01-16T12:07:22;1.50;99.90
21123;DHT22;10719;48.130;11.630;2024-01-16T12:09:48;1.00;99.90
21123;DHT22;10719;48.130;11.630;2024-01-16T12:12:15;0.80;99.90
21123;DHT22;10719;48.130;11.630;2024-01-16T12:14:40;0.80;99.90
21123;DHT22;10719;48.130;11.630;2024-01-16T12:17:13;0.90;99.90
21123;DHT22;10719;48.130;11.630;2024-01-16T12:19:39;0.90;99.90
21123;DHT22;10719;48.130;11.630;2024-01-16T12:22:13;0.80;99.90
21123;DHT22;10719;48.130;11.630;2024-01-16T12:24:39;1.00;99.90
21123;DHT22;10719;48.130;11.630;2024-01-16T12:27:05;0.80;99.90
21123;DHT22;10719;48.130;11.630;2024-01-16T12:29:31;0.90;99.90
21123;DHT22;10719;48.130;11.630;2024-01-16T12:32:10;1.00;99.90
21123;DHT22;10719;48.130;11.630;2024-01-16T12:34:44;1.00;99.90
21123;DHT22;10719;48.130;11.630;2024-01-16T12:37:13;1.00;99.90
21123;DHT22;10719;48.130;11.630;2024-01-16T12:39:39;1.00;99.90
21123;DHT22;10719;48.130;11.630;2024-01-16T12:42:07;1.10;99.90
21123;DHT22;10719;48.130;11.630;2024-01-16T12:44:35;1.10;99.90
21123;DHT22;10719;48.130;11.630;2024-01-16T12:47:01;1.20;99.90
21123;DHT22;10719;48.130;11.630;2024-01-16T12:49:27;1.20;99.90
21123;DHT22;10719;48.130;11.630;2024-01-16T12:54:40;1.90;99.90
21123;DHT22;10719;48.130;11.630;2024-01-16T12:57:06;2.00;99.90
21123;DHT22;10719;48.130;11.630;2024-01-16T12:59:32;2.20;99.90
21123;DHT22;10719;48.130;11.630;2024-01-16T13:01:58;2.10;99.90
21123;DHT22;10719;48.130;11.630;2024-01-16T13:04:23;1.90;99.90
21123;DHT22;10719;48.130;11.630;2024-01-16T13:06:49;1.60;99.90
21123;DHT22;10719;48.130;11.630;2024-01-16T13:09:15;1.60;99.90
21123;DHT22;10719;48.130;11.630;2024-01-16T13:14:16;1.50;99.90
21123;DHT22;10719;48.130;11.630;2024-01-16T13:16:42;1.30;99.90
21123;DHT22;10719;48.130;11.630;2024-01-16T13:19:07;1.20;99.90
21123;DHT22;10719;48.130;11.630;2024-01-16T13:21:36;1.30;99.90
21123;DHT22;10719;48.130;11.630;2024-01-16T13:24:03;1.30;99.90
21123;DHT22;10719;48.130;11.630;2024-01-16T13:26:29;1.00;99.90
21123;DHT22;10719;48.130;11.630;2024-01-16T13:28:55;1.00;99.90
21123;DHT22;10719;48.130;11.630;2024-01-16T13:31:20;1.00;99.90
21123;DHT22;10719;48.130;11.630;2024-01-16T13:33:46;1.00;99.90
21123;DHT22;10719;48.130;11.630;2024-01-16T13:36:12;1.20;99.90
21123;DHT22;10719;48.130;11.630;2024-01-16T13:38:37;1.10;99.90
21123;DHT22;10719;48.130;11.630;2024-01-16T13:41:03;1.20;99.90
21123;DHT22;10719;48.130;11.630;2024-01-16T13:43:29;1.10;99.90
21123;DHT22;10719;48.130;11.630;2024-01-16T13:45:54;1.00;99.90
21123;DHT22;10719;48.130;11.630;2024-01-16T13:48:20;1.00;99.90
21123;DHT22;10719;48.130;11.630;2024-01-16T13:50:46;0.90;99.90
21123;DHT22;10719;48.130;11.630;2024-01-16T13:53:12;0.80;99.90
21123;DHT22;10719;48.130;11.630;2024-01-16T13:55:41;1.00;99.90
21123;DHT22;10719;48.130;11.630;2024-01-16T13:58:07;0.90;99.90
21123;DHT22;10719;48.130;11.630;2024-01-16T14:00:33;0.90;99.90
21123;DHT22;10719;48.130;11.630;2024-01-16T14:02:58;1.00;99.90
21123;DHT22;10719;48.130;11.630;2024-01-16T14:05:24;0.90;99.90
21123;DHT22;10719;48.130;11.630;2024-01-16T14:07:54;0.80;99.90
21123;DHT22;10719;48.130;11.630;2024-01-16T14:10:21;0.90;99.90
21123;DHT22;10719;48.130;11.630;2024-01-16T14:12:50;0.90;99.90
21123;DHT22;10719;48.130;11.630;2024-01-16T14:15:17;0.80;99.90
21123;DHT22;10719;48.130;11.630;2024-01-16T14:17:50;0.60;99.90
21123;DHT22;10719;48.130;11.630;2024-01-16T14:20:17;0.60;99.90
21123;DHT22;10719;48.130;11.630;2024-01-16T14:22:44;0.50;99.90
21123;DHT22;10719;48.130;11.630;2024-01-16T14:25:10;0.50;99.90
21123;DHT22;10719;48.130;11.630;2024-01-16T14:27:41;0.50;99.90
21123;DHT22;10719;48.130;11.630;2024-01-16T14:30:12;0.40;99.90
21123;DHT22;10719;48.130;11.630;2024-01-16T14:32:41;0.50;99.90
21123;DHT22;10719;48.130;11.630;2024-01-16T14:35:07;0.40;99.90
21123;DHT22;10719;48.130;11.630;2024-01-16T14:37:35;0.30;99.90
21123;DHT22;10719;48.130;11.630;2024-01-16T14:40:02;0.30;99.90
21123;DHT22;10719;48.130;11.630;2024-01-16T14:42:29;0.20;99.90
21123;DHT22;10719;48.130;11.630;2024-01-16T14:44:54;0.10;99.90
21123;DHT22;10719;48.130;11.630;2024-01-16T14:47:20;0.10;99.90
21123;DHT22;10719;48.130;11.630;2024-01-16T14:49:46;0.00;99.90
21123;DHT22;10719;48.130;11.630;2024-01-16T14:52:12;0.10;99.90
21123;DHT22;10719;48.130;11.630;2024-01-16T14:54:38;0.10;99.90
21123;DHT22;10719;48.130;11.630;2024-01-16T14:57:04;0.00;99.90
21123;DHT22;10719;48.130;11.630;2024-01-16T14:59:32;-0.10;99.90
21123;DHT22;10719;48.130;11.630;2024-01-16T15:01:58;-0.10;99.90
21123;DHT22;10719;48.130;11.630;2024-01-16T15:04:24;-0.10;99.90
21123;DHT22;10719;48.130;11.630;2024-01-16T15:06:49;0.00;99.90
21123;DHT22;10719;48.130;11.630;2024-01-16T15:09:18;0.00;99.90
21123;DHT22;10719;48.130;11.630;2024-01-16T15:11:43;-0.20;99.90
21123;DHT22;10719;48.130;11.630;2024-01-16T15:14:11;-0.20;99.90
21123;DHT22;10719;48.130;11.630;2024-01-16T15:16:38;-0.30;99.90
21123;DHT22;10719;48.130;11.630;2024-01-16T15:19:03;-0.40;99.90
21123;DHT22;10719;48.130;11.630;2024-01-16T15:21:29;-0.40;99.90
21123;DHT22;10719;48.130;11.630;2024-01-16T15:23:54;-0.30;99.90
21123;DHT22;10719;48.130;11.630;2024-01-16T15:26:20;-0.30;99.90
21123;DHT22;10719;48.130;11.630;2024-01-16T15:28:47;-0.30;99.90
21123;DHT22;10719;48.130;11.630;2024-01-16T15:31:13;-0.40;99.90
21123;DHT22;10719;48.130;11.630;2024-01-16T15:33:39;-0.40;99.90
21123;DHT22;10719;48.130;11.630;2024-01-16T15:36:05;-0.30;99.90